sensor_id;sensor_type;location;lat;lon;timestamp;temperature;humidity
32502;DHT22;18952;52.516;13.460;2023-03-03T00:00:56;-0.10;99.90
32502;DHT22;18952;52.516;13.460;2023-03-03T00:03:24;0.00;99.90
32502;DHT22;18952;52.516;13.460;2023-03-03T00:05:52;0.00;99.90
32502;DHT22;18952;52.516;13.460;2023-03-03T00:08:19;0.10;99.90
32502;DHT22;18952;52.516;13.460;2023-03-03T00:10:46;0.00;99.90
32502;DHT22;18952;52.516;13.460;2023-03-03T00:13:19;0.00;99.90
32502;DHT22;18952;52.516;13.460;2023-03-03T00:15:47;-0.10;99.90
32502;DHT22;18952;52.516;13.460;2023-03-03T00:18:21;0.00;99.90
32502;DHT22;18952;52.516;13.460;2023-03-03T00:20:54;-0.10;99.90
32502;DHT22;18952;52.516;13.460;2023-03-03T00:25:58;-0.10;99.90
32502;DHT22;18952;52.516;13.460;2023-03-03T00:28:31;-0.10;99.90
32502;DHT22;18952;52.516;13.460;2023-03-03T00:33:50;-0.10;99.90
32502;DHT22;18952;52.516;13.460;2023-03-03T00:36:37;-0.10;99.90
32502;DHT22;18952;52.516;13.460;2023-03-03T00:39:25;-0.10;99.90
32502;DHT22;18952;52.516;13.460;2023-03-03T00:41:52;-0.20;99.90
32502;DHT22;18952;52.516;13.460;2023-03-03T00:47:35;-0.10;99.90
32502;DHT22;18952;52.516;13.460;2023-03-03T00:52:37;0.00;99.90
32502;DHT22;18952;52.516;13.460;2023-03-03T00:55:08;0.10;99.90
32502;DHT22;18952;52.516;13.460;2023-03-03T00:57:36;0.10;99.90
32502;DHT22;18952;52.516;13.460;2023-03-03T01:00:03;0.00;99.90
32502;DHT22;18952;52.516;13.460;2023-03-03T01:02:30;-0.10;99.90
32502;DHT22;18952;52.516;13.460;2023-03-03T01:04:57;-0.10;99.90
32502;DHT22;18952;52.516;13.460;2023-03-03T01:07:24;-0.10;99.90
32502;DHT22;18952;52.516;13.460;2023-03-03T01:09:51;0.10;99.90
32502;DHT22;18952;52.516;13.460;2023-03-03T01:12:17;0.10;99.90
32502;DHT22;18952;52.516;13.460;2023-03-03T01:14:44;0.20;99.90
32502;DHT22;18952;52.516;13.460;2023-03-03T01:17:11;0.20;99.90
32502;DHT22;18952;52.516;13.460;2023-03-03T01:19:38;0.20;99.90
32502;DHT22;18952;52.516;13.460;2023-03-03T01:22:05;0.10;99.90
32502;DHT22;18952;52.516;13.460;2023-03-03T01:24:32;0.10;99.90
32502;DHT22;18952;52.516;13.460;2023-03-03T01:26:59;0.20;99.90
32502;DHT22;18952;52.516;13.460;2023-03-03T01:29:26;0.20;99.90
32502;DHT22;18952;52.516;13.460;2023-03-03T01:31:53;0.00;99.90
32502;DHT22;18952;52.516;13.460;2023-03-03T01:34:20;0.00;99.90
32502;DHT22;18952;52.516;13.460;2023-03-03T01:36:47;0.00;99.90
32502;DHT22;18952;52.516;13.460;2023-03-03T01:39:13;0.10;99.90
32502;DHT22;18952;52.516;13.460;2023-03-03T01:41:40;0.10;99.90
32502;DHT22;18952;52.516;13.460;2023-03-03T01:44:13;0.10;99.90
32502;DHT22;18952;52.516;13.460;2023-03-03T01:49:38;0.00;99.90
32502;DHT22;18952;52.516;13.460;2023-03-03T01:52:23;0.10;99.90
32502;DHT22;18952;52.516;13.460;2023-03-03T01:54:54;0.10;99.90
32502;DHT22;18952;52.516;13.460;2023-03-03T01:57:30;0.00;99.90
32502;DHT22;18952;52.516;13.460;2023-03-03T01:59:59;0.00;99.90
32502;DHT22;18952;52.516;13.460;2023-03-03T02:02:28;-0.10;99.90
32502;DHT22;18952;52.516;13.460;2023-03-03T02:04:55;-0.10;99.90
32502;DHT22;18952;52.516;13.460;2023-03-03T02:07:24;-0.20;99.90
32502;DHT22;18952;52.516;13.460;2023-03-03T02:10:04;-0.10;99.90
32502;DHT22;18952;52.516;13.460;2023-03-03T02:17:51;-0.10;99.90
32502;DHT22;18952;52.516;13.460;2023-03-03T02:20:45;-0.10;99.90
32502;DHT22;18952;52.516;13.460;2023-03-03T02:23:52;-0.10;99.90
32502;DHT22;18952;52.516;13.460;2023-03-03T02:26:25;0.00;99.90
32502;DHT22;18952;52.516;13.460;2023-03-03T02:28:52;0.00;99.90
32502;DHT22;18952;52.516;13.460;2023-03-03T02:31:22;0.00;99.90
32502;DHT22;18952;52.516;13.460;2023-03-03T02:33:51;0.00;99.90
32502;DHT22;18952;52.516;13.460;2023-03-03T02:36:30;0.10;99.90
32502;DHT22;18952;52.516;13.460;2023-03-03T02:39:20;0.10;99.90
32502;DHT22;18952;52.516;13.460;2023-03-03T02:42:12;0.00;99.90
32502;DHT22;18952;52.516;13.460;2023-03-03T02:44:40;0.10;99.90
32502;DHT22;18952;52.516;13.460;2023-03-03T02:47:07;0.00;99.90
32502;DHT22;18952;52.516;13.460;2023-03-03T02:49:35;0.00;99.90
32502;DHT22;18952;52.516;13.460;2023-03-03T02:52:05;0.00;99.90
32502;DHT22;18952;52.516;13.460;2023-03-03T02:54:32;0.00;99.90
32502;DHT22;18952;52.516;13.460;2023-03-03T02:57:00;0.00;99.90
32502;DHT22;18952;52.516;13.460;2023-03-03T02:59:27;0.00;99.90
32502;DHT22;18952;52.516;13.460;2023-03-03T03:01:54;0.00;99.90
32502;DHT22;18952;52.516;13.460;2023-03-03T03:04:23;0.00;99.90
32502;DHT22;18952;52.516;13.460;2023-03-03T03:06:51;0.00;99.90
32502;DHT22;18952;52.516;13.460;2023-03-03T03:09:20;0.00;99.90
32502;DHT22;18952;52.516;13.460;2023-03-03T03:11:47;0.00;99.90
32502;DHT22;18952;52.516;13.460;2023-03-03T03:14:14;0.00;99.90
32502;DHT22;18952;52.516;13.460;2023-03-03T03:16:41;0.00;99.90
32502;DHT22;18952;52.516;13.460;2023-03-03T03:19:08;0.00;99.90
32502;DHT22;18952;52.516;13.460;2023-03-03T03:21:35;0.10;99.90
32502;DHT22;18952;52.516;13.460;2023-03-03T03:24:02;0.00;99.90
32502;DHT22;18952;52.516;13.460;2023-03-03T03:26:29;-0.10;99.90
32502;DHT22;18952;52.516;13.460;2023-03-03T03:28:56;0.00;99.90
32502;DHT22;18952;52.516;13.460;2023-03-03T03:31:23;0.00;99.90
32502;DHT22;18952;52.516;13.460;2023-03-03T03:33:50;0.00;99.90
32502;DHT22;18952;52.516;13.460;2023-03-03T03:36:17;0.00;99.90
32502;DHT22;18952;52.516;13.460;2023-03-03T03:38:43;0.00;99.90
32502;DHT22;18952;52.516;13.460;2023-03-03T03:41:11;0.00;99.90
32502;DHT22;18952;52.516;13.460;2023-03-03T03:43:38;0.00;99.90
32502;DHT22;18952;52.516;13.460;2023-03-03T03:46:06;0.00;99.90
32502;DHT22;18952;52.516;13.460;2023-03-03T03:48:33;-0.10;99.90
32502;DHT22;18952;52.516;13.460;2023-03-03T03:51:00;-0.20;99.90
32502;DHT22;18952;52.516;13.460;2023-03-03T03:53:27;-0.20;99.90
32502;DHT22;18952;52.516;13.460;2023-03-03T03:55:54;-0.20;99.90
32502;DHT22;18952;52.516;13.460;2023-03-03T03:58:21;-0.20;99.90
32502;DHT22;18952;52.516;13.460;2023-03-03T04:00:48;-0.20;99.90
32502;DHT22;18952;52.516;13.460;2023-03-03T04:03:15;-0.20;99.90
32502;DHT22;18952;52.516;13.460;2023-03-03T04:05:42;-0.20;99.90
32502;DHT22;18952;52.516;13.460;2023-03-03T04:08:09;-0.20;99.90
32502;DHT22;18952;52.516;13.460;2023-03-03T04:10:37;-0.20;99.90
32502;DHT22;18952;52.516;13.460;2023-03-03T04:13:03;-0.30;99.90
32502;DHT22;18952;52.516;13.460;2023-03-03T04:15:30;-0.30;99.90
32502;DHT22;18952;52.516;13.460;2023-03-03T04:17:57;-0.30;99.90
32502;DHT22;18952;52.516;13.460;2023-03-03T04:20:24;-0.30;99.90
32502;DHT22;18952;52.516;13.460;2023-03-03T04:22:51;-0.30;99.90
32502;DHT22;18952;52.516;13.460;2023-03-03T04:25:18;-0.30;99.90
32502;DHT22;18952;52.516;13.460;2023-03-03T04:27:45;-0.40;99.90
32502;DHT22;18952;52.516;13.460;2023-03-03T04:30:13;-0.40;99.90
32502;DHT22;18952;52.516;13.460;2023-03-03T04:32:41;-0.40;99.90
32502;DHT22;18952;52.516;13.460;2023-03-03T04:35:09;-0.40;99.90
32502;DHT22;18952;52.516;13.460;2023-03-03T04:37:36;-0.50;99.90
32502;DHT22;18952;52.516;13.460;2023-03-03T04:40:07;-0.50;99.90
32502;DHT22;18952;52.516;13.460;2023-03-03T04:42:34;-0.60;99.90
32502;DHT22;18952;52.516;13.460;2023-03-03T04:45:02;-0.60;99.90
32502;DHT22;18952;52.516;13.460;2023-03-03T04:47:30;-0.60;99.90
32502;DHT22;18952;52.516;13.460;2023-03-03T04:49:57;-0.60;99.90
32502;DHT22;18952;52.516;13.460;2023-03-03T04:52:24;-0.60;99.90
32502;DHT22;18952;52.516;13.460;2023-03-03T04:54:51;-0.60;99.90
32502;DHT22;18952;52.516;13.460;2023-03-03T04:57:17;-0.50;99.90
32502;DHT22;18952;52.516;13.460;2023-03-03T04:59:44;-0.60;99.90
32502;DHT22;18952;52.516;13.460;2023-03-03T05:02:11;-0.70;99.90
32502;DHT22;18952;52.516;13.460;2023-03-03T05:04:39;-0.70;99.90
32502;DHT22;18952;52.516;13.460;2023-03-03T05:07:06;-0.80;99.90
32502;DHT22;18952;52.516;13.460;2023-03-03T05:09:32;-0.90;99.90
32502;DHT22;18952;52.516;13.460;2023-03-03T05:11:59;-1.00;99.90
32502;DHT22;18952;52.516;13.460;2023-03-03T05:14:28;-1.00;99.90
32502;DHT22;18952;52.516;13.460;2023-03-03T05:16:55;-1.00;99.90
32502;DHT22;18952;52.516;13.460;2023-03-03T05:19:22;-1.00;99.90
32502;DHT22;18952;52.516;13.460;2023-03-03T05:21:49;-1.00;99.90
32502;DHT22;18952;52.516;13.460;2023-03-03T05:24:16;-1.00;99.90
32502;DHT22;18952;52.516;13.460;2023-03-03T05:26:43;-1.00;99.90
32502;DHT22;18952;52.516;13.460;2023-03-03T05:29:10;-1.00;99.90
32502;DHT22;18952;52.516;13.460;2023-03-03T05:31:36;-0.90;99.90
32502;DHT22;18952;52.516;13.460;2023-03-03T05:34:03;-0.80;99.90
32502;DHT22;18952;52.516;13.460;2023-03-03T05:36:30;-0.80;99.90
32502;DHT22;18952;52.516;13.460;2023-03-03T05:38:57;-0.80;99.90
32502;DHT22;18952;52.516;13.460;2023-03-03T05:41:24;-1.00;99.90
32502;DHT22;18952;52.516;13.460;2023-03-03T05:43:51;-1.00;99.90
32502;DHT22;18952;52.516;13.460;2023-03-03T05:46:17;-1.00;99.90
32502;DHT22;18952;52.516;13.460;2023-03-03T05:48:44;-1.10;99.90
32502;DHT22;18952;52.516;13.460;2023-03-03T05:51:11;-1.00;99.90
32502;DHT22;18952;52.516;13.460;2023-03-03T05:53:38;-1.00;99.90
32502;DHT22;18952;52.516;13.460;2023-03-03T05:56:05;-0.90;99.90
32502;DHT22;18952;52.516;13.460;2023-03-03T05:58:32;-0.90;99.90
32502;DHT22;18952;52.516;13.460;2023-03-03T06:00:59;-0.80;99.90
32502;DHT22;18952;52.516;13.460;2023-03-03T06:03:26;-0.80;99.90
32502;DHT22;18952;52.516;13.460;2023-03-03T06:05:53;-0.70;99.90
32502;DHT22;18952;52.516;13.460;2023-03-03T06:08:19;-0.70;99.90
32502;DHT22;18952;52.516;13.460;2023-03-03T06:10:46;-0.80;99.90
32502;DHT22;18952;52.516;13.460;2023-03-03T06:13:13;-0.80;99.90
32502;DHT22;18952;52.516;13.460;2023-03-03T06:15:40;-0.70;99.90
32502;DHT22;18952;52.516;13.460;2023-03-03T06:18:07;-0.70;99.90
32502;DHT22;18952;52.516;13.460;2023-03-03T06:20:34;-0.70;99.90
32502;DHT22;18952;52.516;13.460;2023-03-03T06:23:01;-0.60;99.90
32502;DHT22;18952;52.516;13.460;2023-03-03T06:25:28;-0.60;99.90
32502;DHT22;18952;52.516;13.460;2023-03-03T06:27:55;-0.70;99.90
32502;DHT22;18952;52.516;13.460;2023-03-03T06:30:22;-0.70;99.90
32502;DHT22;18952;52.516;13.460;2023-03-03T06:32:49;-0.70;99.90
32502;DHT22;18952;52.516;13.460;2023-03-03T06:35:19;-0.70;99.90
32502;DHT22;18952;52.516;13.460;2023-03-03T06:37:46;-0.80;99.90
32502;DHT22;18952;52.516;13.460;2023-03-03T06:40:15;-0.80;99.90
32502;DHT22;18952;52.516;13.460;2023-03-03T06:42:41;-0.90;99.90
32502;DHT22;18952;52.516;13.460;2023-03-03T06:45:08;-1.00;99.90
32502;DHT22;18952;52.516;13.460;2023-03-03T06:47:35;-1.00;99.90
32502;DHT22;18952;52.516;13.460;2023-03-03T06:50:02;-1.00;99.90
32502;DHT22;18952;52.516;13.460;2023-03-03T06:52:29;-0.90;99.90
32502;DHT22;18952;52.516;13.460;2023-03-03T06:54:58;-0.90;99.90
32502;DHT22;18952;52.516;13.460;2023-03-03T06:57:28;-0.90;99.90
32502;DHT22;18952;52.516;13.460;2023-03-03T07:02:42;-0.90;99.90
32502;DHT22;18952;52.516;13.460;2023-03-03T07:05:16;-1.00;99.90
32502;DHT22;18952;52.516;13.460;2023-03-03T07:07:43;-1.00;99.90
32502;DHT22;18952;52.516;13.460;2023-03-03T07:10:24;-1.00;99.90
32502;DHT22;18952;52.516;13.460;2023-03-03T07:12:52;-0.90;99.90
32502;DHT22;18952;52.516;13.460;2023-03-03T07:15:27;-0.90;99.90
32502;DHT22;18952;52.516;13.460;2023-03-03T07:17:56;-0.90;99.90
32502;DHT22;18952;52.516;13.460;2023-03-03T07:20:29;-0.90;99.90
32502;DHT22;18952;52.516;13.460;2023-03-03T07:22:58;-0.90;99.90
32502;DHT22;18952;52.516;13.460;2023-03-03T07:25:33;-0.90;99.90
32502;DHT22;18952;52.516;13.460;2023-03-03T07:28:15;-0.90;99.90
32502;DHT22;18952;52.516;13.460;2023-03-03T07:30:44;-0.90;99.90
32502;DHT22;18952;52.516;13.460;2023-03-03T07:33:35;-1.00;99.90
32502;DHT22;18952;52.516;13.460;2023-03-03T07:36:17;-1.00;99.90
32502;DHT22;18952;52.516;13.460;2023-03-03T07:38:53;-1.00;99.90
32502;DHT22;18952;52.516;13.460;2023-03-03T07:41:21;-0.90;99.90
32502;DHT22;18952;52.516;13.460;2023-03-03T07:43:53;-0.90;99.90
32502;DHT22;18952;52.516;13.460;2023-03-03T07:46:42;-0.90;99.90
32502;DHT22;18952;52.516;13.460;2023-03-03T07:49:42;-0.90;99.90
32502;DHT22;18952;52.516;13.460;2023-03-03T07:52:30;-0.90;99.90
32502;DHT22;18952;52.516;13.460;2023-03-03T07:55:16;-0.90;99.90
32502;DHT22;18952;52.516;13.460;2023-03-03T07:57:45;-1.00;99.90
32502;DHT22;18952;52.516;13.460;2023-03-03T08:02:56;-1.10;99.90
32502;DHT22;18952;52.516;13.460;2023-03-03T08:05:37;-1.10;99.90
32502;DHT22;18952;52.516;13.460;2023-03-03T08:10:48;-1.00;99.90
32502;DHT22;18952;52.516;13.460;2023-03-03T08:15:47;-0.90;99.90
32502;DHT22;18952;52.516;13.460;2023-03-03T08:18:36;-0.80;99.90
32502;DHT22;18952;52.516;13.460;2023-03-03T08:23:41;-0.70;99.90
32502;DHT22;18952;52.516;13.460;2023-03-03T08:26:08;-0.80;99.90
32502;DHT22;18952;52.516;13.460;2023-03-03T08:28:34;-0.70;99.90
32502;DHT22;18952;52.516;13.460;2023-03-03T08:31:01;-0.60;99.90
32502;DHT22;18952;52.516;13.460;2023-03-03T08:33:44;-0.60;99.90
32502;DHT22;18952;52.516;13.460;2023-03-03T08:36:12;-0.50;99.90
32502;DHT22;18952;52.516;13.460;2023-03-03T08:38:39;-0.60;99.90
32502;DHT22;18952;52.516;13.460;2023-03-03T08:41:06;-0.60;99.90
32502;DHT22;18952;52.516;13.460;2023-03-03T08:44:07;-0.50;99.90
32502;DHT22;18952;52.516;13.460;2023-03-03T08:46:49;-0.40;99.90
32502;DHT22;18952;52.516;13.460;2023-03-03T08:49:38;-0.20;99.90
32502;DHT22;18952;52.516;13.460;2023-03-03T08:52:09;-0.10;99.90
32502;DHT22;18952;52.516;13.460;2023-03-03T08:54:36;0.00;99.90
32502;DHT22;18952;52.516;13.460;2023-03-03T08:57:03;0.10;99.90
32502;DHT22;18952;52.516;13.460;2023-03-03T08:59:33;0.10;99.90
32502;DHT22;18952;52.516;13.460;2023-03-03T09:02:04;0.20;99.90
32502;DHT22;18952;52.516;13.460;2023-03-03T09:04:42;0.20;99.90
32502;DHT22;18952;52.516;13.460;2023-03-03T09:07:11;0.10;99.90
32502;DHT22;18952;52.516;13.460;2023-03-03T09:09:42;0.10;99.90
32502;DHT22;18952;52.516;13.460;2023-03-03T09:12:26;0.20;99.90
32502;DHT22;18952;52.516;13.460;2023-03-03T09:14:59;0.40;99.90
32502;DHT22;18952;52.516;13.460;2023-03-03T09:17:36;0.40;99.90
32502;DHT22;18952;52.516;13.460;2023-03-03T09:25:51;0.60;99.90
32502;DHT22;18952;52.516;13.460;2023-03-03T09:28:28;0.60;99.90
32502;DHT22;18952;52.516;13.460;2023-03-03T09:31:02;0.60;99.90
32502;DHT22;18952;52.516;13.460;2023-03-03T09:33:44;0.60;99.90
32502;DHT22;18952;52.516;13.460;2023-03-03T09:38:44;0.60;99.90
32502;DHT22;18952;52.516;13.460;2023-03-03T09:41:26;0.60;99.90
32502;DHT22;18952;52.516;13.460;2023-03-03T09:57:50;0.80;99.90
32502;DHT22;18952;52.516;13.460;2023-03-03T10:01:06;0.80;99.90
32502;DHT22;18952;52.516;13.460;2023-03-03T10:04:10;0.80;99.90
32502;DHT22;18952;52.516;13.460;2023-03-03T10:18:41;1.10;99.90
32502;DHT22;18952;52.516;13.460;2023-03-03T10:26:50;1.20;99.90
32502;DHT22;18952;52.516;13.460;2023-03-03T10:32:29;1.30;99.90
32502;DHT22;18952;52.516;13.460;2023-03-03T10:44:31;1.40;99.90
32502;DHT22;18952;52.516;13.460;2023-03-03T10:50:05;1.50;99.90
32502;DHT22;18952;52.516;13.460;2023-03-03T10:55:31;1.40;99.90
32502;DHT22;18952;52.516;13.460;2023-03-03T11:06:05;1.50;99.90
32502;DHT22;18952;52.516;13.460;2023-03-03T11:14:12;1.70;99.90
32502;DHT22;18952;52.516;13.460;2023-03-03T11:17:06;1.70;99.90
32502;DHT22;18952;52.516;13.460;2023-03-03T11:25:36;1.90;99.90
32502;DHT22;18952;52.516;13.460;2023-03-03T11:31:06;1.80;99.90
32502;DHT22;18952;52.516;13.460;2023-03-03T11:33:57;1.80;99.90
32502;DHT22;18952;52.516;13.460;2023-03-03T11:36:48;1.80;99.90
32502;DHT22;18952;52.516;13.460;2023-03-03T11:39:25;1.90;99.90
32502;DHT22;18952;52.516;13.460;2023-03-03T11:45:02;2.00;99.90
32502;DHT22;18952;52.516;13.460;2023-03-03T11:47:33;2.10;99.90
32502;DHT22;18952;52.516;13.460;2023-03-03T11:55:41;2.30;99.90
32502;DHT22;18952;52.516;13.460;2023-03-03T11:58:24;2.30;99.90
32502;DHT22;18952;52.516;13.460;2023-03-03T12:01:10;2.40;99.90
32502;DHT22;18952;52.516;13.460;2023-03-03T12:03:57;2.30;99.90
32502;DHT22;18952;52.516;13.460;2023-03-03T12:06:38;2.40;99.90
32502;DHT22;18952;52.516;13.460;2023-03-03T12:20:32;2.30;99.90
32502;DHT22;18952;52.516;13.460;2023-03-03T12:23:14;2.30;99.90
32502;DHT22;18952;52.516;13.460;2023-03-03T12:26:09;2.40;99.90
32502;DHT22;18952;52.516;13.460;2023-03-03T12:40:35;2.60;99.90
32502;DHT22;18952;52.516;13.460;2023-03-03T12:46:18;2.80;99.90
32502;DHT22;18952;52.516;13.460;2023-03-03T12:48:57;2.80;99.90
32502;DHT22;18952;52.516;13.460;2023-03-03T12:54:13;2.90;99.90
32502;DHT22;18952;52.516;13.460;2023-03-03T12:56:47;2.80;99.90
32502;DHT22;18952;52.516;13.460;2023-03-03T13:10:34;2.50;99.90
32502;DHT22;18952;52.516;13.460;2023-03-03T13:13:11;2.50;99.90
32502;DHT22;18952;52.516;13.460;2023-03-03T13:16:01;2.60;99.90
32502;DHT22;18952;52.516;13.460;2023-03-03T13:24:20;2.70;99.90
32502;DHT22;18952;52.516;13.460;2023-03-03T13:26:57;2.70;99.90
32502;DHT22;18952;52.516;13.460;2023-03-03T13:32:23;2.70;99.90
32502;DHT22;18952;52.516;13.460;2023-03-03T13:35:14;2.70;99.90
32502;DHT22;18952;52.516;13.460;2023-03-03T13:38:13;2.60;99.90
32502;DHT22;18952;52.516;13.460;2023-03-03T13:42:03;2.60;99.90
32502;DHT22;18952;52.516;13.460;2023-03-03T13:44:41;2.70;99.90
32502;DHT22;18952;52.516;13.460;2023-03-03T13:47:44;2.70;99.90
32502;DHT22;18952;52.516;13.460;2023-03-03T13:53:41;2.70;99.90
32502;DHT22;18952;52.516;13.460;2023-03-03T14:02:48;3.00;99.90
32502;DHT22;18952;52.516;13.460;2023-03-03T14:05:49;3.00;99.90
32502;DHT22;18952;52.516;13.460;2023-03-03T14:20:27;3.10;99.90
32502;DHT22;18952;52.516;13.460;2023-03-03T14:31:26;2.80;99.90
32502;DHT22;18952;52.516;13.460;2023-03-03T14:36:41;2.90;99.90
32502;DHT22;18952;52.516;13.460;2023-03-03T14:39:32;2.90;99.90
32502;DHT22;18952;52.516;13.460;2023-03-03T14:42:09;3.00;99.90
32502;DHT22;18952;52.516;13.460;2023-03-03T14:47:28;3.20;99.90
32502;DHT22;18952;52.516;13.460;2023-03-03T14:49:59;3.30;99.90
32502;DHT22;18952;52.516;13.460;2023-03-03T14:52:29;3.30;99.90
32502;DHT22;18952;52.516;13.460;2023-03-03T14:55:07;3.30;99.90
32502;DHT22;18952;52.516;13.460;2023-03-03T14:57:56;3.30;99.90
32502;DHT22;18952;52.516;13.460;2023-03-03T15:00:31;3.30;99.90
32502;DHT22;18952;52.516;13.460;2023-03-03T15:05:50;3.30;99.90
32502;DHT22;18952;52.516;13.460;2023-03-03T15:08:44;3.40;99.90
32502;DHT22;18952;52.516;13.460;2023-03-03T15:11:27;3.30;99.90
32502;DHT22;18952;52.516;13.460;2023-03-03T15:14:14;3.30;99.90
32502;DHT22;18952;52.516;13.460;2023-03-03T15:17:12;3.20;99.90
32502;DHT22;18952;52.516;13.460;2023-03-03T16:00:47;3.30;99.90
32502;DHT22;18952;52.516;13.460;2023-03-03T16:03:43;3.20;99.90
32502;DHT22;18952;52.516;13.460;2023-03-03T16:12:02;3.20;99.90
32502;DHT22;18952;52.516;13.460;2023-03-03T16:14:53;3.30;99.90
32502;DHT22;18952;52.516;13.460;2023-03-03T16:17:51;3.20;99.90
32502;DHT22;18952;52.516;13.460;2023-03-03T16:29:19;3.30;99.90
32502;DHT22;18952;52.516;13.460;2023-03-03T16:32:13;3.30;99.90
32502;DHT22;18952;52.516;13.460;2023-03-03T16:38:07;3.30;99.90
32502;DHT22;18952;52.516;13.460;2023-03-03T16:41:04;3.30;99.90
32502;DHT22;18952;52.516;13.460;2023-03-03T16:44:03;3.20;99.90
32502;DHT22;18952;52.516;13.460;2023-03-03T16:46:48;3.20;99.90
32502;DHT22;18952;52.516;13.460;2023-03-03T16:53:49;3.20;99.90
32502;DHT22;18952;52.516;13.460;2023-03-03T16:59:35;3.10;99.90
32502;DHT22;18952;52.516;13.460;2023-03-03T17:08:06;3.00;99.90
32502;DHT22;18952;52.516;13.460;2023-03-03T17:10:49;3.00;99.90
32502;DHT22;18952;52.516;13.460;2023-03-03T17:22:05;2.90;99.90
32502;DHT22;18952;52.516;13.460;2023-03-03T17:27:40;2.90;99.90
32502;DHT22;18952;52.516;13.460;2023-03-03T17:33:31;2.90;99.90
32502;DHT22;18952;52.516;13.460;2023-03-03T17:43:14;2.80;99.90
32502;DHT22;18952;52.516;13.460;2023-03-03T17:56:52;2.80;99.90
32502;DHT22;18952;52.516;13.460;2023-03-03T18:02:36;2.90;99.90
32502;DHT22;18952;52.516;13.460;2023-03-03T18:10:49;3.10;99.90
32502;DHT22;18952;52.516;13.460;2023-03-03T18:13:26;3.10;99.90
32502;DHT22;18952;52.516;13.460;2023-03-03T18:16:26;3.10;99.90
32502;DHT22;18952;52.516;13.460;2023-03-03T18:26:51;3.20;99.90
32502;DHT22;18952;52.516;13.460;2023-03-03T18:29:25;3.20;99.90
32502;DHT22;18952;52.516;13.460;2023-03-03T18:34:36;3.10;99.90
32502;DHT22;18952;52.516;13.460;2023-03-03T18:42:29;3.10;99.90
32502;DHT22;18952;52.516;13.460;2023-03-03T18:50:32;3.20;99.90
32502;DHT22;18952;52.516;13.460;2023-03-03T18:53:28;3.10;99.90
32502;DHT22;18952;52.516;13.460;2023-03-03T18:55:57;3.20;99.90
32502;DHT22;18952;52.516;13.460;2023-03-03T19:03:31;3.10;99.90
32502;DHT22;18952;52.516;13.460;2023-03-03T19:05:59;3.10;99.90
32502;DHT22;18952;52.516;13.460;2023-03-03T19:16:44;3.00;99.90
32502;DHT22;18952;52.516;13.460;2023-03-03T19:19:16;3.00;99.90
32502;DHT22;18952;52.516;13.460;2023-03-03T19:21:47;3.00;99.90
32502;DHT22;18952;52.516;13.460;2023-03-03T19:26:57;3.10;99.90
32502;DHT22;18952;52.516;13.460;2023-03-03T19:29:51;3.10;99.90
32502;DHT22;18952;52.516;13.460;2023-03-03T19:33:03;3.00;99.90
32502;DHT22;18952;52.516;13.460;2023-03-03T19:41:02;3.10;99.90
32502;DHT22;18952;52.516;13.460;2023-03-03T19:49:17;3.10;99.90
32502;DHT22;18952;52.516;13.460;2023-03-03T20:00:18;3.10;99.90
32502;DHT22;18952;52.516;13.460;2023-03-03T20:03:52;3.10;99.90
32502;DHT22;18952;52.516;13.460;2023-03-03T20:11:43;3.20;99.90
32502;DHT22;18952;52.516;13.460;2023-03-03T20:15:16;3.20;99.90
32502;DHT22;18952;52.516;13.460;2023-03-03T20:22:55;3.30;99.90
32502;DHT22;18952;52.516;13.460;2023-03-03T20:25:39;3.30;99.90
32502;DHT22;18952;52.516;13.460;2023-03-03T20:28:19;3.20;99.90
32502;DHT22;18952;52.516;13.460;2023-03-03T20:31:05;3.20;99.90
32502;DHT22;18952;52.516;13.460;2023-03-03T20:33:39;3.20;99.90
32502;DHT22;18952;52.516;13.460;2023-03-03T20:39:09;3.20;99.90
32502;DHT22;18952;52.516;13.460;2023-03-03T20:47:53;3.10;99.90
32502;DHT22;18952;52.516;13.460;2023-03-03T20:56:13;3.10;99.90
32502;DHT22;18952;52.516;13.460;2023-03-03T21:01:42;3.10;99.90
32502;DHT22;18952;52.516;13.460;2023-03-03T21:06:45;3.10;99.90
32502;DHT22;18952;52.516;13.460;2023-03-03T21:09:33;3.10;99.90
32502;DHT22;18952;52.516;13.460;2023-03-03T21:12:35;3.10;99.90
32502;DHT22;18952;52.516;13.460;2023-03-03T21:15:02;3.10;99.90
32502;DHT22;18952;52.516;13.460;2023-03-03T21:17:30;3.00;99.90
32502;DHT22;18952;52.516;13.460;2023-03-03T21:22:52;3.00;99.90
32502;DHT22;18952;52.516;13.460;2023-03-03T21:28:34;3.00;99.90
32502;DHT22;18952;52.516;13.460;2023-03-03T21:31:10;3.00;99.90
32502;DHT22;18952;52.516;13.460;2023-03-03T21:33:57;3.00;99.90
32502;DHT22;18952;52.516;13.460;2023-03-03T21:38:57;3.00;99.90
32502;DHT22;18952;52.516;13.460;2023-03-03T21:41:24;2.90;99.90
32502;DHT22;18952;52.516;13.460;2023-03-03T21:43:54;2.90;99.90
32502;DHT22;18952;52.516;13.460;2023-03-03T21:46:24;2.80;99.90
32502;DHT22;18952;52.516;13.460;2023-03-03T21:48:54;2.90;99.90
32502;DHT22;18952;52.516;13.460;2023-03-03T21:51:24;2.90;99.90
32502;DHT22;18952;52.516;13.460;2023-03-03T21:53:51;2.90;99.90
32502;DHT22;18952;52.516;13.460;2023-03-03T21:56:18;3.00;99.90
32502;DHT22;18952;52.516;13.460;2023-03-03T21:58:45;3.00;99.90
32502;DHT22;18952;52.516;13.460;2023-03-03T22:01:11;3.00;99.90
32502;DHT22;18952;52.516;13.460;2023-03-03T22:03:38;3.00;99.90
32502;DHT22;18952;52.516;13.460;2023-03-03T22:06:05;3.00;99.90
32502;DHT22;18952;52.516;13.460;2023-03-03T22:08:32;3.00;99.90
32502;DHT22;18952;52.516;13.460;2023-03-03T22:10:59;2.90;99.90
32502;DHT22;18952;52.516;13.460;2023-03-03T22:13:25;2.90;99.90
32502;DHT22;18952;52.516;13.460;2023-03-03T22:15:54;2.90;99.90
32502;DHT22;18952;52.516;13.460;2023-03-03T22:18:21;2.90;99.90
32502;DHT22;18952;52.516;13.460;2023-03-03T22:20:48;2.90;99.90
32502;DHT22;18952;52.516;13.460;2023-03-03T22:23:16;2.80;99.90
32502;DHT22;18952;52.516;13.460;2023-03-03T22:25:43;2.90;99.90
32502;DHT22;18952;52.516;13.460;2023-03-03T22:28:10;2.90;99.90
32502;DHT22;18952;52.516;13.460;2023-03-03T22:30:36;2.80;99.90
32502;DHT22;18952;52.516;13.460;2023-03-03T22:33:03;2.80;99.90
32502;DHT22;18952;52.516;13.460;2023-03-03T22:35:30;2.80;99.90
32502;DHT22;18952;52.516;13.460;2023-03-03T22:37:57;2.80;99.90
32502;DHT22;18952;52.516;13.460;2023-03-03T22:40:24;2.70;99.90
32502;DHT22;18952;52.516;13.460;2023-03-03T22:42:51;2.80;99.90
32502;DHT22;18952;52.516;13.460;2023-03-03T22:45:18;2.70;99.90
32502;DHT22;18952;52.516;13.460;2023-03-03T22:47:45;2.70;99.90
32502;DHT22;18952;52.516;13.460;2023-03-03T22:50:13;2.80;99.90
32502;DHT22;18952;52.516;13.460;2023-03-03T22:52:40;2.80;99.90
32502;DHT22;18952;52.516;13.460;2023-03-03T22:55:07;2.80;99.90
32502;DHT22;18952;52.516;13.460;2023-03-03T22:57:34;2.80;99.90
32502;DHT22;18952;52.516;13.460;2023-03-03T23:00:02;2.80;99.90
32502;DHT22;18952;52.516;13.460;2023-03-03T23:02:29;2.80;99.90
32502;DHT22;18952;52.516;13.460;2023-03-03T23:04:56;2.70;99.90